Time;durP1;ratioP1;P1;durP2;ratioP2;P2;SDS_P1;SDS_P2;PMS_P1;PMS_P2;Temp;Humidity;BMP_temperature;BMP_pressure;BME280_temperature;BME280_humidity;BME280_pressure;Samples;Min_cycle;Max_cycle;Signal;HPM_P1;HPM_P2
2021/08/02 00:00:13;;;;;;;2.50;1.80;;;21.30;67.60;;;;;;10458547;28;20060;-54
2021/08/02 00:05:15;;;;;;;3.17;1.67;;;21.20;67.50;;;;;;10458083;28;20045;-53
2021/08/02 00:10:16;;;;;;;2.72;1.70;;;21.20;67.50;;;;;;10458066;28;20032;-53
2021/08/02 00:15:19;;;;;;;2.75;1.80;;;21.20;67.50;;;;;;10457121;28;20037;-54
2021/08/02 00:20:29;;;;;;;3.22;2.17;;;21.20;67.40;;;;;;10464857;28;20020;-54
2021/08/02 00:25:30;;;;;;;2.53;1.60;;;21.20;67.40;;;;;;10457212;28;20036;-53
2021/08/02 00:30:33;;;;;;;2.10;1.50;;;21.20;67.40;;;;;;10439695;28;20396;-52
2021/08/02 00:35:53;;;;;;;3.05;1.67;;;21.20;67.40;;;;;;10456704;28;20419;-52
2021/08/02 00:41:18;;;;;;;3.25;1.65;;;21.10;67.20;;;;;;10456888;28;20428;-54
2021/08/02 00:46:27;;;;;;;3.20;1.80;;;21.20;67.20;;;;;;10443711;28;20072;-52
2021/08/02 00:51:32;;;;;;;2.35;1.73;;;21.20;67.30;;;;;;10415157;28;20033;-52
2021/08/02 00:56:35;;;;;;;1.80;1.45;;;21.10;67.30;;;;;;10447627;28;20025;-53
2021/08/02 01:01:37;;;;;;;3.50;2.03;;;21.10;67.30;;;;;;10438322;28;20052;-54
2021/08/02 01:06:39;;;;;;;2.40;1.63;;;21.10;67.30;;;;;;10455766;28;20040;-53
2021/08/02 01:11:40;;;;;;;3.72;1.70;;;21.10;67.30;;;;;;10455930;28;20059;-53
2021/08/02 01:16:41;;;;;;;2.38;1.70;;;21.10;67.30;;;;;;10421630;28;20037;-53
2021/08/02 01:21:45;;;;;;;3.78;2.10;;;21.10;67.20;;;;;;10444268;28;20037;-53
2021/08/02 01:26:45;;;;;;;2.75;1.60;;;21.10;67.20;;;;;;10454303;28;20123;-54
2021/08/02 01:31:46;;;;;;;3.22;1.98;;;21.10;67.10;;;;;;10455373;28;20483;-53
2021/08/02 01:36:46;;;;;;;3.15;1.85;;;21.00;67.00;;;;;;10455452;28;20159;-52
2021/08/02 01:41:47;;;;;;;4.22;1.80;;;21.00;67.00;;;;;;10455098;28;20067;-53
2021/08/02 01:47:02;;;;;;;2.13;1.60;;;21.10;67.10;;;;;;10454634;28;20076;-54
2021/08/02 01:52:05;;;;;;;2.63;1.63;;;21.00;67.00;;;;;;10454908;28;20045;-53
2021/08/02 01:57:22;;;;;;;3.38;1.83;;;21.00;67.00;;;;;;10441077;28;20029;-54
2021/08/02 02:02:25;;;;;;;3.67;1.48;;;21.00;67.00;;;;;;10438946;28;20036;-54
2021/08/02 02:07:29;;;;;;;3.92;1.77;;;21.00;67.00;;;;;;10437556;28;20036;-54
2021/08/02 02:12:30;;;;;;;3.17;1.70;;;21.00;67.00;;;;;;10436660;28;20377;-53
2021/08/02 02:17:36;;;;;;;3.50;1.40;;;21.00;67.00;;;;;;10437004;28;20061;-52
2021/08/02 02:22:37;;;;;;;2.85;1.98;;;21.00;67.00;;;;;;10460706;28;20029;-53
2021/08/02 02:27:38;;;;;;;2.92;1.83;;;21.00;67.00;;;;;;10436706;28;20107;-54
2021/08/02 02:32:42;;;;;;;5.10;2.08;;;21.00;67.00;;;;;;10436333;28;20386;-54
2021/08/02 02:37:43;;;;;;;5.32;1.75;;;21.00;67.00;;;;;;10422602;28;20037;-52
2021/08/02 02:42:45;;;;;;;2.75;1.60;;;21.00;67.00;;;;;;10443326;28;20052;-52
2021/08/02 02:47:48;;;;;;;2.83;1.88;;;21.00;67.00;;;;;;10444409;28;20577;-53
2021/08/02 02:52:49;;;;;;;3.08;1.80;;;21.00;67.10;;;;;;10461027;28;20044;-53
2021/08/02 02:57:50;;;;;;;3.08;1.90;;;21.00;67.00;;;;;;10443321;28;20100;-52
2021/08/02 03:02:55;;;;;;;2.92;1.60;;;21.00;67.00;;;;;;10460765;28;20158;-53
2021/08/02 03:07:59;;;;;;;3.65;1.60;;;21.00;67.00;;;;;;10443390;28;20033;-54
2021/08/02 03:13:00;;;;;;;2.35;1.40;;;20.90;66.90;;;;;;10442517;28;20037;-52
2021/08/02 03:18:01;;;;;;;2.85;1.80;;;21.00;67.00;;;;;;10460164;28;20029;-54
2021/08/02 03:23:08;;;;;;;2.72;1.70;;;20.90;67.00;;;;;;10466141;28;20114;-54
2021/08/02 03:28:40;;;;;;;4.15;1.95;;;20.90;67.00;;;;;;10449541;28;20094;-54
2021/08/02 03:33:42;;;;;;;2.50;1.40;;;20.90;67.00;;;;;;10459559;28;20086;-52
2021/08/02 03:38:49;;;;;;;3.80;1.73;;;20.90;67.00;;;;;;10442125;28;20029;-54
2021/08/02 03:43:50;;;;;;;2.92;1.95;;;20.90;67.00;;;;;;10459197;28;20025;-54
2021/08/02 03:48:51;;;;;;;3.45;1.50;;;20.90;67.00;;;;;;10440013;28;20469;-52
2021/08/02 03:53:51;;;;;;;4.88;1.50;;;20.90;67.00;;;;;;10458005;28;20036;-52
2021/08/02 03:58:52;;;;;;;2.63;1.67;;;20.90;67.00;;;;;;10457455;28;20075;-53
2021/08/02 04:03:53;;;;;;;2.92;1.90;;;20.90;66.90;;;;;;10455729;28;20128;-53
2021/08/02 04:08:54;;;;;;;3.92;1.70;;;20.90;66.90;;;;;;10458197;28;20476;-53
2021/08/02 04:13:54;;;;;;;3.20;1.63;;;20.90;67.00;;;;;;10457676;28;20052;-53
2021/08/02 04:18:55;;;;;;;2.50;1.70;;;20.80;66.90;;;;;;10457595;28;20051;-54
2021/08/02 04:23:56;;;;;;;2.75;1.80;;;20.80;66.90;;;;;;10463409;28;20448;-54
2021/08/02 04:28:57;;;;;;;2.95;1.88;;;20.80;66.90;;;;;;10439502;28;20029;-53
2021/08/02 04:33:58;;;;;;;3.90;1.90;;;20.80;67.40;;;;;;10457175;28;20108;-54
2021/08/02 04:38:58;;;;;;;3.33;1.70;;;20.80;66.90;;;;;;10456862;28;20121;-54
2021/08/02 04:43:59;;;;;;;2.42;1.70;;;20.80;66.90;;;;;;10456693;28;20553;-54
2021/08/02 04:49:00;;;;;;;2.80;1.58;;;20.80;66.80;;;;;;10421900;28;20091;-52
2021/08/02 04:54:01;;;;;;;4.30;1.50;;;20.80;66.90;;;;;;10456340;28;20036;-52
2021/08/02 04:59:01;;;;;;;4.65;1.90;;;20.80;67.70;;;;;;10455882;28;20107;-53
2021/08/02 05:04:02;;;;;;;4.90;2.42;;;20.90;68.20;;;;;;10455900;28;20036;-54
2021/08/02 05:09:03;;;;;;;3.80;1.83;;;20.90;68.90;;;;;;10455894;28;20041;-53
2021/08/02 05:14:03;;;;;;;4.95;2.08;;;20.90;69.00;;;;;;10455423;28;20032;-55
2021/08/02 05:19:04;;;;;;;9.30;2.53;;;21.00;68.80;;;;;;10455607;28;20107;-54
2021/08/02 05:24:05;;;;;;;6.63;2.60;;;21.00;69.20;;;;;;10462128;28;20048;-53
2021/08/02 05:29:06;;;;;;;8.57;2.22;;;21.00;69.10;;;;;;10455387;28;20060;-53
2021/08/02 05:34:07;;;;;;;13.15;3.10;;;21.00;68.80;;;;;;10455236;28;20437;-54
2021/08/02 05:39:08;;;;;;;14.48;3.15;;;21.00;69.00;;;;;;10442393;28;20493;-52
2021/08/02 05:44:09;;;;;;;9.57;2.72;;;21.00;69.20;;;;;;10455032;28;20044;-53
2021/08/02 05:49:10;;;;;;;14.82;2.85;;;21.00;69.20;;;;;;10439941;28;20040;-54
2021/08/02 05:54:11;;;;;;;18.90;3.50;;;21.00;69.00;;;;;;10455132;28;20025;-54
2021/08/02 05:59:11;;;;;;;10.27;3.00;;;21.00;69.00;;;;;;10454842;28;20460;-55
2021/08/02 06:04:12;;;;;;;9.00;3.13;;;21.00;69.30;;;;;;10454118;28;20060;-55
2021/08/02 06:09:13;;;;;;;15.30;2.95;;;21.00;69.60;;;;;;10451138;28;20116;-54
2021/08/02 06:14:13;;;;;;;11.10;3.33;;;21.00;69.50;;;;;;10458100;28;20199;-53
2021/08/02 06:19:14;;;;;;;19.52;3.65;;;21.00;69.50;;;;;;10460909;28;20111;-50
2021/08/02 06:24:15;;;;;;;18.38;3.67;;;21.00;69.70;;;;;;10465482;28;20511;-52
2021/08/02 06:29:15;;;;;;;12.40;3.25;;;21.00;70.00;;;;;;10458973;28;20029;-53
2021/08/02 06:34:16;;;;;;;13.90;3.53;;;21.00;70.20;;;;;;10441287;28;20063;-49
2021/08/02 06:39:17;;;;;;;19.90;3.67;;;21.00;70.00;;;;;;10459170;28;20400;-53
2021/08/02 06:44:18;;;;;;;18.30;3.72;;;21.00;70.20;;;;;;10442513;28;20105;-55
2021/08/02 06:49:18;;;;;;;19.15;3.60;;;21.10;70.20;;;;;;10435877;28;20091;-56
2021/08/02 06:54:19;;;;;;;19.98;3.83;;;21.10;70.50;;;;;;10432554;28;20025;-54
2021/08/02 06:59:19;;;;;;;19.90;3.70;;;21.10;70.70;;;;;;10454700;28;20067;-55
2021/08/02 07:04:20;;;;;;;17.88;4.15;;;21.10;70.50;;;;;;10449084;28;20083;-54
2021/08/02 07:09:21;;;;;;;20.65;3.83;;;21.10;70.70;;;;;;10459903;28;20064;-55
2021/08/02 07:14:21;;;;;;;21.40;3.97;;;21.10;70.90;;;;;;10441503;28;20115;-55
2021/08/02 07:19:22;;;;;;;17.40;4.47;;;21.10;70.90;;;;;;10459592;28;20103;-55
2021/08/02 07:24:23;;;;;;;14.38;3.20;;;21.20;71.20;;;;;;10462150;28;20435;-54
2021/08/02 07:29:23;;;;;;;17.05;3.80;;;21.20;71.10;;;;;;10458994;28;20053;-55
2021/08/02 07:34:24;;;;;;;26.90;4.90;;;21.20;71.00;;;;;;10458813;28;20108;-55
2021/08/02 07:39:25;;;;;;;33.05;5.38;;;21.20;71.10;;;;;;10458584;28;20060;-54
2021/08/02 07:44:26;;;;;;;21.60;4.60;;;21.20;71.10;;;;;;10458191;28;20021;-53
2021/08/02 07:49:26;;;;;;;30.02;5.82;;;21.20;71.10;;;;;;10457965;28;20079;-55
2021/08/02 07:54:27;;;;;;;36.08;5.95;;;21.20;71.00;;;;;;10457848;28;20056;-54
2021/08/02 07:59:28;;;;;;;22.38;4.30;;;21.20;71.20;;;;;;10457306;28;20118;-54
2021/08/02 08:04:29;;;;;;;24.90;5.28;;;21.30;71.00;;;;;;10457342;28;20028;-53
2021/08/02 08:09:30;;;;;;;21.58;4.18;;;21.30;70.50;;;;;;10457361;28;20128;-51
2021/08/02 08:14:30;;;;;;;31.13;5.07;;;21.20;70.50;;;;;;10457211;28;20078;-48
2021/08/02 08:19:31;;;;;;;15.93;3.75;;;21.20;70.40;;;;;;10439202;28;20029;-53
2021/08/02 08:24:32;;;;;;;16.52;4.13;;;21.20;70.10;;;;;;10456882;28;20124;-52
2021/08/02 08:29:32;;;;;;;11.20;3.67;;;21.10;69.80;;;;;;10456941;28;20159;-53
2021/08/02 08:34:33;;;;;;;19.92;5.40;;;21.10;69.80;;;;;;10456276;28;20033;-53
2021/08/02 08:39:34;;;;;;;13.68;3.58;;;21.10;69.80;;;;;;10438500;28;20063;-54
2021/08/02 08:44:35;;;;;;;13.13;4.10;;;21.10;69.90;;;;;;10456083;28;20080;-54
2021/08/02 08:49:35;;;;;;;18.42;3.92;;;21.10;69.80;;;;;;10455869;28;20033;-53
2021/08/02 08:54:37;;;;;;;10.35;3.25;;;21.00;69.70;;;;;;10455833;28;20448;-53
2021/08/02 08:59:50;;;;;;;11.70;3.35;;;21.10;69.80;;;;;;10432691;28;20029;-54
2021/08/02 09:04:56;;;;;;;8.00;3.53;;;21.00;69.60;;;;;;10449041;28;20040;-54
2021/08/02 09:09:59;;;;;;;11.73;3.33;;;21.00;69.60;;;;;;10428239;28;20028;-54
2021/08/02 09:15:05;;;;;;;13.07;3.13;;;21.10;69.50;;;;;;10455127;28;20032;-54
2021/08/02 09:20:20;;;;;;;10.55;3.42;;;21.00;69.40;;;;;;10460396;28;20059;-53
2021/08/02 09:25:24;;;;;;;9.75;2.92;;;21.00;69.30;;;;;;10454898;28;20060;-54
2021/08/02 09:30:27;;;;;;;6.65;3.28;;;21.00;69.40;;;;;;10454843;28;20029;-54
2021/08/02 09:35:42;;;;;;;10.02;3.22;;;21.10;69.20;;;;;;10437219;28;20045;-54
2021/08/02 09:40:56;;;;;;;6.05;3.20;;;21.00;69.30;;;;;;10454760;28;20032;-53
2021/08/02 09:46:02;;;;;;;8.73;2.58;;;21.00;69.10;;;;;;10454537;28;20122;-52
2021/08/02 09:51:12;;;;;;;10.15;3.03;;;21.00;69.30;;;;;;10462380;28;20057;-54
2021/08/02 09:56:16;;;;;;;11.32;3.13;;;21.00;69.20;;;;;;10462924;28;20071;-54
2021/08/02 10:01:20;;;;;;;9.75;2.35;;;21.00;69.20;;;;;;10462391;28;20116;-54
2021/08/02 10:06:20;;;;;;;6.82;2.60;;;21.00;69.20;;;;;;10462318;28;20069;-54
2021/08/02 10:11:21;;;;;;;7.32;3.22;;;21.00;69.30;;;;;;10462183;28;20897;-52
2021/08/02 10:16:26;;;;;;;4.13;2.55;;;21.00;69.20;;;;;;10454142;28;20104;-55
2021/08/02 10:21:44;;;;;;;12.75;3.00;;;21.00;69.10;;;;;;10444526;28;20028;-51
2021/08/02 10:26:57;;;;;;;10.40;2.65;;;21.00;69.00;;;;;;10445064;28;20033;-55
2021/08/02 10:31:58;;;;;;;10.98;2.72;;;21.10;69.80;;;;;;10437215;28;20513;-55
2021/08/02 10:37:06;;;;;;;9.88;3.33;;;21.10;70.30;;;;;;10419425;28;20107;-55
2021/08/02 10:42:12;;;;;;;12.25;3.55;;;21.20;70.10;;;;;;10439086;28;20406;-56
2021/08/02 10:47:13;;;;;;;11.55;3.90;;;21.20;70.40;;;;;;10459834;28;20041;-55
2021/08/02 10:52:33;;;;;;;17.63;3.47;;;21.20;70.40;;;;;;10442934;28;20078;-54
2021/08/02 10:57:34;;;;;;;20.80;3.70;;;21.20;69.90;;;;;;10460107;28;20101;-54
2021/08/02 11:02:35;;;;;;;15.02;3.40;;;21.20;70.20;;;;;;10459584;28;20129;-55
2021/08/02 11:07:35;;;;;;;16.90;3.25;;;21.20;70.40;;;;;;10424008;28;20032;-55
2021/08/02 11:12:44;;;;;;;20.67;4.10;;;21.30;70.60;;;;;;10449719;28;20033;-55
2021/08/02 11:17:53;;;;;;;11.10;2.70;;;21.30;70.50;;;;;;10455327;28;20520;-54
2021/08/02 11:22:57;;;;;;;14.73;2.85;;;21.30;70.40;;;;;;10440313;28;20029;-55
2021/08/02 11:28:00;;;;;;;13.30;2.88;;;21.40;70.40;;;;;;10437374;28;20060;-55
2021/08/02 11:33:00;;;;;;;20.70;3.40;;;21.40;70.40;;;;;;10450833;28;20103;-54
2021/08/02 11:38:03;;;;;;;16.33;3.17;;;21.40;70.50;;;;;;10438773;28;20389;-53
2021/08/02 11:43:05;;;;;;;11.30;2.90;;;21.40;70.50;;;;;;10443198;28;20553;-55
2021/08/02 11:48:10;;;;;;;18.08;3.08;;;21.40;70.60;;;;;;10451984;28;20405;-56
2021/08/02 11:53:11;;;;;;;17.98;2.97;;;21.40;71.20;;;;;;10457780;28;20032;-55
2021/08/02 11:58:11;;;;;;;16.15;2.75;;;21.40;70.80;;;;;;10443055;28;20064;-56
2021/08/02 12:03:12;;;;;;;11.15;3.25;;;21.50;70.70;;;;;;10438966;28;20032;-57
2021/08/02 12:08:18;;;;;;;11.20;2.65;;;21.50;70.50;;;;;;10458206;28;20045;-55
2021/08/02 12:13:18;;;;;;;9.35;2.60;;;21.50;70.20;;;;;;10441539;28;20025;-57
2021/08/02 12:18:28;;;;;;;15.77;3.13;;;21.50;70.20;;;;;;10457766;28;20103;-56
2021/08/02 12:23:28;;;;;;;15.23;3.25;;;21.50;70.10;;;;;;10463814;28;20025;-56
2021/08/02 12:28:43;;;;;;;11.75;2.83;;;21.50;69.80;;;;;;10456493;28;20033;-55
2021/08/02 12:33:49;;;;;;;14.48;3.55;;;21.50;69.70;;;;;;10454822;28;20031;-55
2021/08/02 12:38:52;;;;;;;10.48;3.35;;;21.50;69.40;;;;;;10454182;28;20032;-56
2021/08/02 12:43:55;;;;;;;9.38;2.50;;;21.50;69.30;;;;;;10435116;28;20367;-56
2021/08/02 12:48:56;;;;;;;11.95;3.17;;;21.40;69.00;;;;;;10453578;28;20072;-55
2021/08/02 12:53:57;;;;;;;10.43;3.47;;;21.40;68.90;;;;;;10455738;28;20438;-56
2021/08/02 12:58:57;;;;;;;18.73;3.63;;;21.50;75.20;;;;;;10455676;28;20048;-56
2021/08/02 13:04:01;;;;;;;12.43;3.90;;;21.60;73.00;;;;;;10455231;28;20021;-56
2021/08/02 13:09:01;;;;;;;14.77;4.30;;;21.70;72.80;;;;;;10455212;28;20032;-56
2021/08/02 13:14:02;;;;;;;25.60;4.72;;;21.60;71.20;;;;;;10452355;28;20112;-56
2021/08/02 13:19:03;;;;;;;12.75;3.67;;;21.60;72.50;;;;;;10446102;28;20048;-57
2021/08/02 13:29:35;;;;;;;11.13;3.28;;;21.60;72.70;;;;;;10436074;28;20042;-54
2021/08/02 13:34:38;;;;;;;14.00;3.40;;;21.60;72.60;;;;;;10423126;28;20033;-57
2021/08/02 13:39:39;;;;;;;16.80;3.88;;;21.60;71.80;;;;;;10426068;28;20021;-57
2021/08/02 13:44:39;;;;;;;22.58;5.68;;;21.50;71.70;;;;;;10433194;28;20052;-54
2021/08/02 13:49:40;;;;;;;28.10;4.95;;;21.60;71.90;;;;;;10448576;28;20120;-54
2021/08/02 13:54:41;;;;;;;21.70;3.85;;;21.60;71.90;;;;;;10454306;28;20529;-56
2021/08/02 13:59:43;;;;;;;26.65;4.72;;;21.60;71.50;;;;;;10453424;28;20105;-55
2021/08/02 14:04:44;;;;;;;38.13;7.82;;;21.60;71.00;;;;;;10454315;28;20064;-56
2021/08/02 14:09:45;;;;;;;32.28;5.93;;;21.60;71.20;;;;;;10436615;28;20037;-55
2021/08/02 14:14:48;;;;;;;42.30;6.60;;;21.60;71.30;;;;;;10454407;28;20072;-56
2021/08/02 14:19:51;;;;;;;27.73;5.60;;;21.60;71.70;;;;;;10440385;28;20021;-55
2021/08/02 14:24:52;;;;;;;30.83;6.28;;;21.60;71.40;;;;;;10438860;28;20029;-55
2021/08/02 14:29:53;;;;;;;50.38;6.68;;;21.60;71.60;;;;;;10435999;28;20032;-55
2021/08/02 14:34:53;;;;;;;32.17;5.75;;;21.60;71.80;;;;;;10424411;28;20096;-56
2021/08/02 14:39:58;;;;;;;36.13;6.38;;;21.60;71.90;;;;;;10461622;28;20040;-55
2021/08/02 14:45:04;;;;;;;33.40;6.00;;;21.60;72.10;;;;;;10443878;28;20140;-55
2021/08/02 14:50:14;;;;;;;39.92;7.38;;;21.60;71.90;;;;;;10461555;28;20029;-56
2021/08/02 14:55:18;;;;;;;27.60;6.25;;;21.70;72.00;;;;;;10461386;28;20033;-55
2021/08/02 15:00:19;;;;;;;28.08;5.53;;;21.60;71.70;;;;;;10461071;28;20400;-55
2021/08/02 15:05:20;;;;;;;28.35;5.15;;;21.60;71.50;;;;;;10461091;28;20087;-55
2021/08/02 15:10:21;;;;;;;20.02;5.40;;;21.60;71.30;;;;;;10442747;28;20060;-55
2021/08/02 15:15:21;;;;;;;27.30;4.55;;;21.60;71.10;;;;;;10443299;28;20056;-55
2021/08/02 15:20:25;;;;;;;17.73;5.80;;;21.50;70.80;;;;;;10466373;28;20413;-54
2021/08/02 15:25:28;;;;;;;18.52;4.43;;;21.50;70.70;;;;;;10436187;28;20029;-56
2021/08/02 15:30:31;;;;;;;16.13;4.75;;;21.50;70.60;;;;;;10441686;28;20420;-55
2021/08/02 15:35:32;;;;;;;16.15;3.58;;;21.50;70.60;;;;;;10441826;28;20082;-55
2021/08/02 15:40:33;;;;;;;24.08;4.50;;;21.50;70.70;;;;;;10459040;28;20088;-56
2021/08/02 15:45:33;;;;;;;18.85;3.88;;;21.50;69.80;;;;;;10439807;28;20060;-56
2021/08/02 15:50:34;;;;;;;10.57;3.40;;;21.50;69.20;;;;;;10424536;28;20393;-55
2021/08/02 15:55:38;;;;;;;15.68;6.63;;;21.50;68.70;;;;;;10458282;28;20021;-56
2021/08/02 16:00:40;;;;;;;12.10;5.00;;;21.50;70.10;;;;;;10440264;28;20074;-57
2021/08/02 16:05:54;;;;;;;15.48;4.78;;;21.50;69.50;;;;;;10436569;28;20033;-56
2021/08/02 16:10:58;;;;;;;11.07;3.33;;;21.60;70.10;;;;;;10457696;28;20409;-56
2021/08/02 16:15:59;;;;;;;20.27;3.97;;;21.60;68.60;;;;;;10444298;28;20063;-58
2021/08/02 16:21:00;;;;;;;12.85;2.92;;;21.70;71.30;;;;;;10446838;28;20036;-56
2021/08/02 16:26:01;;;;;;;8.52;2.67;;;21.70;70.10;;;;;;10457351;28;20529;-56
2021/08/02 16:31:01;;;;;;;8.38;2.78;;;21.80;71.10;;;;;;10457312;28;20036;-57
2021/08/02 16:36:05;;;;;;;12.35;2.97;;;21.80;70.60;;;;;;10457271;28;20108;-55
2021/08/02 16:41:06;;;;;;;13.68;3.45;;;21.80;70.70;;;;;;10457110;28;20059;-55
2021/08/02 16:46:06;;;;;;;10.88;3.35;;;21.90;72.00;;;;;;10456199;28;20124;-56
2021/08/02 16:51:08;;;;;;;15.52;2.88;;;21.90;72.10;;;;;;10455678;28;20025;-55
2021/08/02 16:56:08;;;;;;;12.82;2.97;;;21.80;71.40;;;;;;10455032;28;20025;-54
2021/08/02 17:01:09;;;;;;;16.77;3.95;;;21.80;71.60;;;;;;10442143;28;20064;-56
2021/08/02 17:06:10;;;;;;;10.98;2.65;;;21.70;71.80;;;;;;10456068;28;20039;-52
2021/08/02 17:11:10;;;;;;;11.38;3.17;;;21.70;71.60;;;;;;10454562;28;20111;-53
2021/08/02 17:16:12;;;;;;;10.65;2.92;;;21.70;71.90;;;;;;10455543;28;20033;-52
2021/08/02 17:21:14;;;;;;;7.63;2.70;;;21.70;70.60;;;;;;10443857;28;20362;-52
2021/08/02 17:26:19;;;;;;;9.55;2.85;;;21.70;71.10;;;;;;10455635;28;20139;-53
2021/08/02 17:31:20;;;;;;;10.32;3.10;;;21.70;71.20;;;;;;10437914;28;20057;-53
2021/08/02 17:36:21;;;;;;;10.27;2.75;;;21.70;70.20;;;;;;10431610;28;20544;-51
2021/08/02 17:41:22;;;;;;;7.32;2.38;;;21.70;71.10;;;;;;10453728;28;20400;-53
2021/08/02 17:46:22;;;;;;;6.93;2.10;;;21.70;70.90;;;;;;10454368;28;20045;-52
2021/08/02 17:51:25;;;;;;;5.75;2.33;;;21.60;70.70;;;;;;10454085;28;20036;-50
2021/08/02 17:56:25;;;;;;;5.95;2.20;;;21.60;71.00;;;;;;10454081;28;20036;-52
2021/08/02 18:01:28;;;;;;;7.05;2.13;;;21.60;70.70;;;;;;10453070;28;20112;-51
2021/08/02 18:06:34;;;;;;;8.60;2.17;;;21.60;70.90;;;;;;10453995;28;20036;-52
2021/08/02 18:11:36;;;;;;;6.90;1.98;;;21.60;70.70;;;;;;10433391;28;20485;-49
2021/08/02 18:16:36;;;;;;;4.45;2.05;;;21.60;71.80;;;;;;10437487;28;20017;-52
2021/08/02 18:21:38;;;;;;;5.25;1.85;;;21.60;70.60;;;;;;10453703;28;20025;-48
2021/08/02 18:26:40;;;;;;;5.57;1.67;;;21.50;71.10;;;;;;10439430;28;20021;-52
2021/08/02 18:31:40;;;;;;;5.10;1.77;;;21.50;70.50;;;;;;10460455;28;20025;-52
2021/08/02 18:36:41;;;;;;;5.20;1.80;;;21.50;70.50;;;;;;10458202;28;20476;-52
2021/08/02 18:41:46;;;;;;;5.70;1.88;;;21.50;70.40;;;;;;10452148;28;20480;-51
2021/08/02 18:46:46;;;;;;;2.75;1.60;;;21.50;70.40;;;;;;10460837;28;20045;-50
2021/08/02 18:51:47;;;;;;;5.22;1.88;;;21.50;70.30;;;;;;10459885;28;20400;-50
2021/08/02 18:56:48;;;;;;;7.10;2.22;;;21.50;70.30;;;;;;10459212;28;20061;-52
2021/08/02 19:01:49;;;;;;;4.35;2.00;;;21.50;70.30;;;;;;10459567;28;20147;-49
2021/08/02 19:06:49;;;;;;;3.78;1.60;;;21.50;70.10;;;;;;10459466;28;20029;-52
2021/08/02 19:12:02;;;;;;;3.65;1.45;;;21.50;70.20;;;;;;10447663;28;20489;-48
2021/08/02 19:17:06;;;;;;;3.38;1.80;;;21.50;70.10;;;;;;10445859;28;20036;-49
2021/08/02 19:22:09;;;;;;;4.13;1.50;;;21.50;70.10;;;;;;10436475;28;20026;-49
2021/08/02 19:27:10;;;;;;;3.25;1.35;;;21.50;70.10;;;;;;10457569;28;20036;-49
2021/08/02 19:32:13;;;;;;;2.60;1.60;;;21.50;70.00;;;;;;10453476;28;20048;-50
2021/08/02 19:37:17;;;;;;;3.97;1.42;;;21.50;70.00;;;;;;10457054;28;20032;-51
2021/08/02 19:42:22;;;;;;;4.45;1.50;;;21.50;70.00;;;;;;10440278;28;20444;-53
2021/08/02 19:47:35;;;;;;;4.95;1.85;;;21.50;70.00;;;;;;10422107;28;20573;-52
2021/08/02 19:52:42;;;;;;;3.67;1.60;;;21.50;69.90;;;;;;10453394;28;20032;-51
2021/08/02 19:57:45;;;;;;;3.58;1.50;;;21.50;69.80;;;;;;10457133;28;20032;-51
2021/08/02 20:02:46;;;;;;;2.47;1.10;;;21.50;70.00;;;;;;10456681;28;20029;-52
2021/08/02 20:07:48;;;;;;;3.33;1.70;;;21.50;70.10;;;;;;10458348;28;20362;-50
2021/08/02 20:12:49;;;;;;;4.05;1.70;;;21.50;70.00;;;;;;10449195;28;20033;-51
2021/08/02 20:17:50;;;;;;;3.58;1.85;;;21.50;70.00;;;;;;10456884;28;20020;-52
2021/08/02 20:22:54;;;;;;;2.83;1.42;;;21.50;70.00;;;;;;10433420;28;20037;-49
2021/08/02 20:27:59;;;;;;;3.80;1.98;;;21.50;70.00;;;;;;10455546;28;20032;-51
2021/08/02 20:33:01;;;;;;;1.75;1.30;;;21.50;70.00;;;;;;10455405;28;20021;-52
2021/08/02 20:38:03;;;;;;;2.50;1.50;;;21.50;70.00;;;;;;10457332;28;20029;-51
2021/08/02 20:43:04;;;;;;;3.35;1.63;;;21.40;69.90;;;;;;10457227;28;20091;-52
2021/08/02 20:48:06;;;;;;;2.70;1.55;;;21.40;69.80;;;;;;10422837;28;20130;-51
2021/08/02 20:53:08;;;;;;;2.92;1.73;;;21.40;69.60;;;;;;10456844;28;20111;-51
2021/08/02 20:58:09;;;;;;;3.10;1.95;;;21.40;69.50;;;;;;10439170;28;20118;-50
2021/08/02 21:03:30;;;;;;;2.25;1.60;;;21.40;69.40;;;;;;10438568;28;20029;-52
2021/08/02 21:08:47;;;;;;;2.58;1.60;;;21.40;69.00;;;;;;10455931;28;20115;-52
2021/08/02 21:14:12;;;;;;;2.40;1.40;;;21.40;68.90;;;;;;10456255;28;20040;-52
2021/08/02 21:19:16;;;;;;;2.20;1.63;;;21.40;69.10;;;;;;10455135;28;20033;-52
2021/08/02 21:24:18;;;;;;;3.08;1.85;;;21.30;69.00;;;;;;10464075;28;20060;-53
2021/08/02 21:29:19;;;;;;;2.95;1.40;;;21.30;69.00;;;;;;10448208;28;20465;-52
2021/08/02 21:34:19;;;;;;;2.25;1.65;;;21.30;68.90;;;;;;10455753;28;20067;-52
2021/08/02 21:39:22;;;;;;;2.80;1.65;;;21.30;68.70;;;;;;10455434;28;20579;-51
2021/08/02 21:44:23;;;;;;;2.80;1.30;;;21.30;68.80;;;;;;10461022;28;20025;-53
2021/08/02 21:49:23;;;;;;;2.38;1.20;;;21.30;68.60;;;;;;10445676;28;20045;-52
2021/08/02 21:54:24;;;;;;;2.60;1.70;;;21.30;68.60;;;;;;10463802;28;20039;-52
2021/08/02 21:59:25;;;;;;;2.15;1.40;;;21.30;68.50;;;;;;10445938;28;20035;-53
2021/08/02 22:04:25;;;;;;;2.03;1.35;;;21.30;68.30;;;;;;10445777;28;20066;-52
2021/08/02 22:09:29;;;;;;;1.75;1.30;;;21.30;68.10;;;;;;10445022;28;20040;-51
2021/08/02 22:14:30;;;;;;;2.10;1.10;;;21.30;68.10;;;;;;10462720;28;20048;-52
2021/08/02 22:19:30;;;;;;;2.20;1.23;;;21.20;67.90;;;;;;10463448;28;20111;-51
2021/08/02 22:24:33;;;;;;;2.20;1.42;;;21.20;67.80;;;;;;10475116;28;20103;-51
2021/08/02 22:29:34;;;;;;;2.85;1.60;;;21.20;67.80;;;;;;10462390;28;20441;-52
2021/08/02 22:34:34;;;;;;;3.28;1.33;;;21.20;67.60;;;;;;10461925;28;20082;-49
2021/08/02 22:39:36;;;;;;;1.98;1.25;;;21.20;67.60;;;;;;10462163;28;20029;-46
2021/08/02 22:44:37;;;;;;;2.72;1.52;;;21.20;67.40;;;;;;10461582;28;20531;-50
2021/08/02 22:49:46;;;;;;;2.72;1.50;;;21.20;67.30;;;;;;10461350;28;20041;-45
2021/08/02 22:54:47;;;;;;;2.00;1.33;;;21.20;67.20;;;;;;10460616;28;20079;-48
2021/08/02 22:59:54;;;;;;;2.13;1.38;;;21.20;67.10;;;;;;10443290;28;20100;-45
2021/08/02 23:04:56;;;;;;;4.70;1.58;;;21.20;67.10;;;;;;10451901;28;20041;-46
2021/08/02 23:09:57;;;;;;;7.72;1.98;;;21.20;67.10;;;;;;10460601;28;20025;-46
2021/08/02 23:14:59;;;;;;;1.60;1.08;;;21.10;66.90;;;;;;10453640;28;20082;-46
2021/08/02 23:20:00;;;;;;;2.67;1.60;;;21.20;66.90;;;;;;10447428;28;20503;-46
2021/08/02 23:25:00;;;;;;;2.28;1.58;;;21.10;66.90;;;;;;10450331;28;20039;-47
2021/08/02 23:30:03;;;;;;;2.53;1.40;;;21.10;67.00;;;;;;10460209;28;20036;-46
2021/08/02 23:35:04;;;;;;;1.75;1.48;;;21.10;66.80;;;;;;10447922;28;20209;-46
2021/08/02 23:40:09;;;;;;;2.80;1.50;;;21.10;66.80;;;;;;10459725;28;20035;-46
2021/08/02 23:45:11;;;;;;;1.85;1.30;;;21.10;66.80;;;;;;10459115;28;20045;-46
2021/08/02 23:50:13;;;;;;;3.60;1.65;;;21.10;66.60;;;;;;10458728;28;20031;-46
2021/08/02 23:55:16;;;;;;;2.97;1.23;;;21.10;66.50;;;;;;10447390;28;20036;-46
